Airfield :
LOGIN :

Register | Disclaimer

   EN    FR    IT 

 










Legend :    VFR   Marginal VFR   IFR   Intensive IFR   Very Intensive IFR
Visi :
Ceiling :
>= 8 km
>= 3000ft
5 to 8 km
1000 to 3000 ft
1500m to 5 km
500 to 1000 ft
800 to 1500m
200 to 500 ft
< 800m
< 200 ft
Symbols :   Thunderstorms  Fog  Heavy snow  Heavy precipitations  Wind > 20 kt
SIGMETs :     Misc.  Thunderstorms  Icing  Turbulence  Mountain Waves  Volcanic Ashes






- Airport Elevation : 40 ft
- IATA code : RMI


LIPR - Federico Fellini Int. Rimini

CURRENT METAR :
  • 272320Z AUTO 25005KT 1900 BR OVC006/// 07/06 Q1021

EXPIRED METARs :
  • 272250Z AUTO 29005KT 2500 BR OVC007/// 07/06 Q1021
  • 272220Z AUTO 29005KT 2000 BR OVC008/// 07/06 Q1022
  • 272150Z AUTO 30004KT 1700 BR OVC007/// 08/07 Q1022
  • 272120Z AUTO 31003KT 1700 BR OVC007/// 08/07 Q1022
  • 272050Z AUTO 27003KT 1500 BR OVC007/// 08/07 Q1022

TAF TAF LIPR
Valid from the 28 at 00:00 until the 28 at 09:00 UTC


272300Z 2800/2809 VRB05KT 1500 BR BKN005
TEMPO 2800/2807 0800 FG



MET'MAP, your aeronautical weather chart ! - Copyright ORBIFLY December 2007 - Disclaimer

ORBIFLY MET'MAP TEAM :

Programming & Development : Alexandra Zaïnal
Concept & original design : Baudouin d'Aumeries
Assistance for programming : Marc-Olivier Méhu
Technical & hardware support : Manuel Goepfert

Contact : metmap@orbifly.com




SOURCES & CREDITS :

   NOAA